createdAt,value
2023-03-21T00:00:57.481Z,67992.38
2023-03-21T00:03:26.303Z,67994.66
2023-03-21T00:05:54.124Z,67992.03
2023-03-21T00:08:22.581Z,67990.13
2023-03-21T00:10:58.232Z,67984.13
2023-03-21T00:13:28.386Z,67990.72
2023-03-21T00:16:21.392Z,68006.72
2023-03-21T00:18:52.607Z,68009.34
2023-03-21T00:21:41.050Z,67997.47
2023-03-21T00:24:09.500Z,67996.72
2023-03-21T00:26:38.399Z,67979.03
2023-03-21T00:29:06.376Z,67968.13
2023-03-21T00:31:34.213Z,67978.47
2023-03-21T00:34:02.093Z,67982.22
2023-03-21T00:36:32.161Z,67977.69
2023-03-21T00:39:01.083Z,67982.03
2023-03-21T00:41:41.397Z,67973.19
2023-03-21T00:44:11.852Z,67965.47
2023-03-21T00:46:48.980Z,67965.84
2023-03-21T00:49:21.017Z,67962.63
2023-03-21T00:51:51.525Z,67964.13
2023-03-21T00:54:19.828Z,67969.03
2023-03-21T00:56:47.534Z,67969.41
2023-03-21T00:59:15.018Z,67962.63
2023-03-21T01:01:46.812Z,67955.09
2023-03-21T01:04:16.781Z,67954.91
2023-03-21T01:06:44.715Z,67955.47
2023-03-21T01:09:16.750Z,67956.63
2023-03-21T01:11:45.133Z,67966.94
2023-03-21T01:14:22.641Z,67959.25
2023-03-21T01:16:54.633Z,67957.16
2023-03-21T01:19:40.939Z,67945.28
2023-03-21T01:22:12.470Z,67945.47
2023-03-21T01:24:50.318Z,67931.53
2023-03-21T01:27:20.712Z,67923.25
2023-03-21T01:29:49.462Z,67923.63
2023-03-21T01:32:17.117Z,67919.13
2023-03-21T01:34:44.738Z,67914.03
2023-03-21T01:37:12.110Z,67910.44
2023-03-21T01:39:46.274Z,67914.94
2023-03-21T01:42:14.596Z,67915.53
2023-03-21T01:45:00.187Z,67910.63
2023-03-21T01:47:36.770Z,67916.09
2023-03-21T01:50:26.420Z,67910.06
2023-03-21T01:53:14.725Z,67911.38
2023-03-21T01:55:42.354Z,67911.94
2023-03-21T01:58:20.115Z,67906.47
2023-03-21T02:01:02.925Z,67907.03
2023-03-21T02:03:52.450Z,67916.25
2023-03-21T02:06:41.075Z,67912.50
2023-03-21T02:09:21.072Z,67896.09
2023-03-21T02:11:49.388Z,67888.56
2023-03-21T02:14:26.985Z,67874.47
2023-03-21T02:17:42.181Z,67867.13
2023-03-21T02:20:27.706Z,67863.34
2023-03-21T02:23:05.004Z,67857.53
2023-03-21T02:26:12.901Z,67856.03
2023-03-21T02:29:01.672Z,67857.31
2023-03-21T02:31:42.907Z,67854.69
2023-03-21T02:34:41.927Z,67850.75
2023-03-21T02:37:28.866Z,67855.25
2023-03-21T02:40:14.584Z,67842.63
2023-03-21T02:43:22.641Z,67829.25
2023-03-21T02:45:57.941Z,67826.59
2023-03-21T02:48:48.253Z,67818.34
2023-03-21T02:51:22.932Z,67815.88
2023-03-21T02:54:24.639Z,67800.84
2023-03-21T02:56:51.482Z,67807.78
2023-03-21T02:59:21.585Z,67803.44
2023-03-21T03:01:52.824Z,67799.72
2023-03-21T03:04:23.077Z,67792.94
2023-03-21T03:06:56.310Z,67786.16
2023-03-21T03:09:47.047Z,67786.16
2023-03-21T03:12:27.964Z,67782.78
2023-03-21T03:15:11.606Z,67777.31
2023-03-21T03:18:14.469Z,67785.41
2023-03-21T03:21:00.918Z,67789.16
2023-03-21T03:24:01.439Z,67781.63
2023-03-21T03:26:40.253Z,67786.34
2023-03-21T03:29:12.357Z,67777.50
2023-03-21T03:31:45.169Z,67776.34
2023-03-21T03:34:16.965Z,67774.50
2023-03-21T03:36:51.770Z,67774.28
2023-03-21T03:39:19.802Z,67780.88
2023-03-21T03:42:21.471Z,67780.16
2023-03-21T03:44:58.559Z,67788.59
2023-03-21T03:47:54.159Z,67798.22
2023-03-21T03:50:41.611Z,67799.91
2023-03-21T03:53:19.531Z,67799.72
2023-03-21T03:55:51.837Z,67794.81
2023-03-21T03:58:24.854Z,67800.06
2023-03-21T04:00:57.283Z,67794.25
2023-03-21T04:03:25.087Z,67790.88
2023-03-21T04:05:54.242Z,67792.94
2023-03-21T04:08:23.872Z,67799.50
2023-03-21T04:10:55.017Z,67798.72
2023-03-21T04:13:24.037Z,67790.13
2023-03-21T04:16:07.910Z,67789.53
2023-03-21T04:18:36.181Z,67783.34
2023-03-21T04:21:10.927Z,67780.53
2023-03-21T04:23:40.007Z,67777.69
2023-03-21T04:26:08.535Z,67783.13
2023-03-21T04:28:41.012Z,67781.63
2023-03-21T04:31:34.067Z,67787.28
2023-03-21T04:34:12.762Z,67786.72
2023-03-21T04:36:46.421Z,67785.41
2023-03-21T04:39:15.388Z,67785.41
2023-03-21T04:41:46.968Z,67779.38
2023-03-21T04:44:16.677Z,67776.91
2023-03-21T04:46:45.086Z,67770.00
2023-03-21T04:49:13.838Z,67766.59
2023-03-21T04:51:46.367Z,67770.00
2023-03-21T04:54:18.647Z,67767.72
2023-03-21T04:56:46.305Z,67770.34
2023-03-21T04:59:15.977Z,67769.78
2023-03-21T05:01:44.054Z,67772.97
2023-03-21T05:04:14.091Z,67770.91
2023-03-21T05:06:46.074Z,67771.28
2023-03-21T05:09:13.939Z,67777.50
2023-03-21T05:11:41.867Z,67771.09
2023-03-21T05:14:16.154Z,67776.19
2023-03-21T05:16:56.293Z,67773.38
2023-03-21T05:19:34.973Z,67778.06
2023-03-21T05:22:06.298Z,67779.94
2023-03-21T05:24:34.492Z,67775.06
2023-03-21T05:27:02.955Z,67776.34
2023-03-21T05:29:39.753Z,67773.94
2023-03-21T05:32:08.638Z,67777.69
2023-03-21T05:34:36.144Z,67778.25
2023-03-21T05:37:03.743Z,67775.06
2023-03-21T05:39:47.555Z,67777.69
2023-03-21T05:42:22.671Z,67776.75
2023-03-21T05:44:51.096Z,67781.44
2023-03-21T05:47:23.394Z,67777.31
2023-03-21T05:49:52.908Z,67774.50
2023-03-21T05:52:21.968Z,67782.00
2023-03-21T05:54:49.654Z,67776.34
2023-03-21T05:57:20.469Z,67771.09
2023-03-21T05:59:58.081Z,67770.00
2023-03-21T06:02:25.682Z,67768.28
2023-03-21T06:04:57.552Z,67779.56
2023-03-21T06:07:24.992Z,67780.53
2023-03-21T06:09:52.485Z,67788.41
2023-03-21T06:12:20.059Z,67801.75
2023-03-21T06:15:11.589Z,67818.34
2023-03-21T06:17:50.590Z,67823.78
2023-03-21T06:20:20.721Z,67827.56
2023-03-21T06:22:52.747Z,67829.06
2023-03-21T06:25:20.312Z,67831.50
2023-03-21T06:27:47.827Z,67838.69
2023-03-21T06:30:18.049Z,67841.13
2023-03-21T06:32:56.935Z,67836.41
2023-03-21T06:35:24.758Z,67833.59
2023-03-21T06:37:52.538Z,67834.13
2023-03-21T06:40:21.814Z,67838.88
2023-03-21T06:42:49.188Z,67842.81
2023-03-21T06:45:19.708Z,67850.00
2023-03-21T06:47:47.091Z,67876.19
2023-03-21T06:50:31.033Z,67887.28
2023-03-21T06:52:59.560Z,67895.38
2023-03-21T06:55:30.024Z,67917.78
2023-03-21T06:58:00.372Z,67928.72
2023-03-21T07:00:28.688Z,67958.84
2023-03-21T07:02:58.855Z,67958.47
2023-03-21T07:05:27.136Z,67949.06
2023-03-21T07:07:54.533Z,67956.41
2023-03-21T07:10:23.285Z,67972.97
2023-03-21T07:13:01.011Z,67986.19
2023-03-21T07:15:38.659Z,68003.16
2023-03-21T07:18:08.486Z,67996.38
2023-03-21T07:20:38.133Z,68000.50
2023-03-21T07:23:05.951Z,67996.00
2023-03-21T07:25:34.735Z,67977.69
2023-03-21T07:28:03.210Z,67938.13
2023-03-21T07:30:30.983Z,67931.91
2023-03-21T07:32:58.430Z,67920.81
2023-03-21T07:35:26.098Z,67939.06
2023-03-21T07:37:54.068Z,67956.22
2023-03-21T07:40:21.505Z,67961.28
2023-03-21T07:42:50.985Z,67961.66
2023-03-21T07:45:29.657Z,67959.41
2023-03-21T07:48:01.300Z,67987.69
2023-03-21T07:50:28.865Z,67994.84
2023-03-21T07:52:56.708Z,67999.75
2023-03-21T07:55:24.204Z,68032.34
2023-03-21T07:57:52.625Z,68024.63
2023-03-21T08:00:24.379Z,68055.00
2023-03-21T08:03:00.695Z,68093.66
2023-03-21T08:05:30.845Z,68094.59
2023-03-21T08:07:58.322Z,68080.25
2023-03-21T08:10:25.943Z,68076.69
2023-03-21T08:12:53.739Z,68084.78
2023-03-21T08:15:21.049Z,68090.63
2023-03-21T08:17:48.599Z,68096.47
2023-03-21T08:20:21.395Z,68105.69
2023-03-21T08:22:50.084Z,68111.00
2023-03-21T08:25:19.661Z,68090.81
2023-03-21T08:27:47.404Z,68043.50
2023-03-21T08:30:18.470Z,68058.75
2023-03-21T08:32:46.247Z,68079.69
2023-03-21T08:35:16.316Z,68101.19
2023-03-21T08:37:43.981Z,68130.63
2023-03-21T08:40:14.416Z,68128.38
2023-03-21T08:42:43.518Z,68108.56
2023-03-21T08:45:12.147Z,68098.16
2023-03-21T08:47:40.017Z,68110.81
2023-03-21T08:50:09.662Z,68126.13
2023-03-21T08:52:37.366Z,68134.03
2023-03-21T08:55:05.443Z,68154.22
2023-03-21T08:57:33.520Z,68157.06
2023-03-21T09:00:01.002Z,68149.53
2023-03-21T09:02:28.554Z,68159.31
2023-03-21T09:04:59.172Z,68179.50
2023-03-21T09:07:28.019Z,68152.72
2023-03-21T09:10:14.864Z,68155.16
2023-03-21T09:12:43.102Z,68138.75
2023-03-21T09:15:12.454Z,68132.94
2023-03-21T09:17:44.000Z,68134.97
2023-03-21T09:20:18.786Z,68148.78
2023-03-21T09:22:47.878Z,68194.06
2023-03-21T09:25:16.927Z,68195.75
2023-03-21T09:27:46.024Z,68186.13
2023-03-21T09:30:17.259Z,68151.78
2023-03-21T09:32:48.757Z,68149.50
2023-03-21T09:35:20.882Z,68144.97
2023-03-21T09:37:50.114Z,68139.31
2023-03-21T09:40:23.690Z,68130.25
2023-03-21T09:43:50.326Z,68132.16
2023-03-21T09:46:51.046Z,68178.03
2023-03-21T09:49:23.239Z,68222.94
2023-03-21T09:51:53.414Z,68241.25
2023-03-21T09:54:29.103Z,68263.34
2023-03-21T09:57:01.160Z,68298.66
2023-03-21T09:59:40.177Z,68318.13
2023-03-21T10:02:36.579Z,68331.94
2023-03-21T10:05:12.158Z,68338.56
2023-03-21T10:07:44.772Z,68347.81
2023-03-21T10:10:18.760Z,68406.59
2023-03-21T10:12:48.126Z,68423.59
2023-03-21T10:15:21.112Z,68425.88
2023-03-21T10:18:08.702Z,68476.91
2023-03-21T10:20:37.045Z,68473.53
2023-03-21T10:23:13.233Z,68532.75
2023-03-21T10:25:44.716Z,68508.16
2023-03-21T10:28:18.774Z,68536.16
2023-03-21T10:30:49.302Z,68526.88
2023-03-21T10:33:21.067Z,68543.34
2023-03-21T10:35:55.661Z,68539.00
2023-03-21T10:38:26.605Z,68574.75
2023-03-21T10:40:54.696Z,68557.53
2023-03-21T10:43:28.393Z,68485.44
2023-03-21T10:45:57.010Z,68445.72
2023-03-21T10:48:24.973Z,68437.22
2023-03-21T10:50:55.136Z,68443.28
2023-03-21T10:53:29.872Z,68480.31
2023-03-21T10:56:00.604Z,68490.91
2023-03-21T10:58:33.448Z,68496.41
2023-03-21T11:01:07.750Z,68523.47
2023-03-21T11:03:43.768Z,68492.81
2023-03-21T11:06:23.132Z,68524.44
2023-03-21T11:08:54.730Z,68505.84
2023-03-21T11:11:33.269Z,68511.94
2023-03-21T11:14:07.122Z,68513.66
2023-03-21T11:16:41.949Z,68528.97
2023-03-21T11:19:19.338Z,68533.50
2023-03-21T11:21:47.151Z,68536.34
2023-03-21T11:24:16.367Z,68559.44
2023-03-21T11:26:48.256Z,68522.34
2023-03-21T11:29:27.881Z,68501.88
2023-03-21T11:32:12.097Z,68514.78
2023-03-21T11:35:00.667Z,68521.78
2023-03-21T11:37:33.855Z,68539.94
2023-03-21T11:40:31.628Z,68550.75
2023-03-21T11:43:27.103Z,68559.63
2023-03-21T11:46:06.933Z,68561.34
2023-03-21T11:48:40.873Z,68579.31
2023-03-21T11:51:40.625Z,68620.75
2023-03-21T11:54:11.588Z,68636.47
2023-03-21T11:56:45.100Z,68676.84
2023-03-21T11:59:31.273Z,68681.19
2023-03-21T12:02:27.463Z,68710.91
2023-03-21T12:04:58.400Z,68701.63
2023-03-21T12:07:37.937Z,68693.88
2023-03-21T12:10:17.519Z,68591.63
2023-03-21T12:13:00.499Z,68560.03
2023-03-21T12:15:43.112Z,68573.81
2023-03-21T12:18:42.828Z,68592.56
2023-03-21T12:21:18.073Z,68604.09
2023-03-21T12:24:03.929Z,68589.31
2023-03-21T12:27:00.040Z,68574.75
2023-03-21T12:29:45.580Z,68568.91
2023-03-21T12:32:39.321Z,68559.63
2023-03-21T12:35:19.037Z,68567.38
2023-03-21T12:37:57.774Z,68571.91
2023-03-21T12:40:25.650Z,68615.25
2023-03-21T12:43:12.376Z,68628.53
2023-03-21T12:45:47.609Z,68677.22
2023-03-21T12:48:22.454Z,68699.91
2023-03-21T12:50:53.913Z,68729.69
2023-03-21T12:53:59.218Z,68750.88
2023-03-21T12:56:35.846Z,68719.94
2023-03-21T12:59:15.420Z,68676.66
2023-03-21T13:01:44.366Z,68689.72
2023-03-21T13:04:32.894Z,68667.19
2023-03-21T13:07:03.763Z,68660.34
2023-03-21T13:09:40.052Z,68674.56
2023-03-21T13:12:37.076Z,68717.38
2023-03-21T13:15:28.711Z,68759.81
2023-03-21T13:18:13.399Z,68787.66
2023-03-21T13:20:45.050Z,68772.88
2023-03-21T13:23:13.860Z,68793.38
2023-03-21T13:25:50.557Z,68831.47
2023-03-21T13:28:35.436Z,68862.59
2023-03-21T13:31:19.835Z,68836.22
2023-03-21T13:33:53.281Z,68834.50
2023-03-21T13:36:28.454Z,68835.25
2023-03-21T13:39:01.846Z,68831.47
2023-03-21T13:41:37.250Z,68797.34
2023-03-21T13:44:04.777Z,68804.75
2023-03-21T13:46:54.561Z,68810.44
2023-03-21T13:49:33.377Z,68781.78
2023-03-21T13:52:21.135Z,68802.47
2023-03-21T13:54:52.677Z,68786.53
2023-03-21T13:57:42.186Z,68809.47
2023-03-21T14:00:17.647Z,68822.03
2023-03-21T14:03:08.414Z,68799.81
2023-03-21T14:05:37.590Z,68814.78
2023-03-21T14:08:15.269Z,68826.56
2023-03-21T14:11:04.151Z,68818.97
2023-03-21T14:13:35.062Z,68748.94
2023-03-21T14:16:10.906Z,68773.44
2023-03-21T14:18:53.893Z,68779.72
2023-03-21T14:21:25.693Z,68784.25
2023-03-21T14:24:13.887Z,68772.50
2023-03-21T14:26:48.441Z,68795.03
2023-03-21T14:29:31.602Z,68778.56
2023-03-21T14:32:00.500Z,68764.72
2023-03-21T14:34:30.056Z,68763.78
2023-03-21T14:36:59.153Z,68764.53
2023-03-21T14:39:32.129Z,68774.59
2023-03-21T14:42:06.257Z,68790.34
2023-03-21T14:44:52.807Z,68810.66
2023-03-21T14:47:22.939Z,68768.50
2023-03-21T14:49:51.308Z,68787.28
2023-03-21T14:52:33.922Z,68767.38
2023-03-21T14:55:05.963Z,68750.13
2023-03-21T14:57:34.430Z,68700.47
2023-03-21T15:00:12.960Z,68687.44
2023-03-21T15:02:43.406Z,68683.47
2023-03-21T15:05:19.195Z,68683.09
2023-03-21T15:07:59.054Z,68668.31
2023-03-21T15:10:28.964Z,68655.22
2023-03-21T15:12:59.812Z,68646.88
2023-03-21T15:15:29.542Z,68656.56
2023-03-21T15:18:03.070Z,68658.66
2023-03-21T15:20:34.129Z,68649.72
2023-03-21T15:23:06.337Z,68665.28
2023-03-21T15:25:37.371Z,68657.88
2023-03-21T15:28:06.563Z,68662.63
2023-03-21T15:30:35.129Z,68650.13
2023-03-21T15:33:09.924Z,68649.53
2023-03-21T15:35:41.343Z,68659.56
2023-03-21T15:38:34.484Z,68647.66
2023-03-21T15:41:20.427Z,68654.09
2023-03-21T15:44:11.686Z,68647.47
2023-03-21T15:46:50.808Z,68628.16
2023-03-21T15:49:30.032Z,68601.28
2023-03-21T15:52:11.916Z,68594.06
2023-03-21T15:54:50.332Z,68600.69
2023-03-21T15:57:34.212Z,68615.09
2023-03-21T16:00:20.180Z,68627.00
2023-03-21T16:02:52.065Z,68630.22
2023-03-21T16:05:28.337Z,68624.91
2023-03-21T16:08:03.254Z,68609.59
2023-03-21T16:10:41.052Z,68603.53
2023-03-21T16:13:12.584Z,68591.63
2023-03-21T16:15:48.102Z,68583.47
2023-03-21T16:18:19.650Z,68568.34
2023-03-21T16:20:48.096Z,68560.75
2023-03-21T16:23:18.091Z,68539.56
2023-03-21T16:25:47.037Z,68534.81
2023-03-21T16:28:17.546Z,68526.88
2023-03-21T16:30:45.665Z,68517.22
2023-03-21T16:33:13.888Z,68494.69
2023-03-21T16:35:42.834Z,68492.44
2023-03-21T16:38:14.176Z,68504.19
2023-03-21T16:40:43.855Z,68514.22
2023-03-21T16:43:12.307Z,68502.50
2023-03-21T16:45:40.600Z,68474.09
2023-03-21T16:48:09.136Z,68468.41
2023-03-21T16:50:42.429Z,68463.50
2023-03-21T16:53:10.064Z,68472.38
2023-03-21T16:55:42.336Z,68463.31
2023-03-21T16:58:14.867Z,68464.81
2023-03-21T17:00:43.551Z,68462.19
2023-03-21T17:03:19.894Z,68470.31
2023-03-21T17:05:47.578Z,68455.94
2023-03-21T17:08:18.414Z,68458.22
2023-03-21T17:10:47.067Z,68456.50
2023-03-21T17:13:15.025Z,68466.34
2023-03-21T17:15:42.526Z,68465.59
2023-03-21T17:18:11.320Z,68468.25
2023-03-21T17:20:42.565Z,68464.06
2023-03-21T17:23:10.527Z,68450.63
2023-03-21T17:25:38.975Z,68444.59
2023-03-21T17:28:08.270Z,68444.41
2023-03-21T17:30:40.747Z,68442.69
2023-03-21T17:33:10.029Z,68441.75
2023-03-21T17:35:37.508Z,68429.44
2023-03-21T17:38:07.301Z,68440.63
2023-03-21T17:40:34.868Z,68467.09
2023-03-21T17:43:03.780Z,68466.91
2023-03-21T17:45:31.578Z,68450.44
2023-03-21T17:47:59.111Z,68436.47
2023-03-21T17:50:30.958Z,68425.88
2023-03-21T17:52:58.424Z,68437.22
2023-03-21T17:55:26.277Z,68424.53
2023-03-21T17:57:55.773Z,68412.81
2023-03-21T18:00:28.567Z,68402.22
2023-03-21T18:02:57.418Z,68406.41
2023-03-21T18:05:27.488Z,68398.66
2023-03-21T18:08:10.239Z,68403.56
2023-03-21T18:10:39.161Z,68410.94
2023-03-21T18:13:07.235Z,68414.34
2023-03-21T18:15:35.979Z,68417.72
2023-03-21T18:18:05.445Z,68408.47
2023-03-21T18:23:21.559Z,68407.72
2023-03-21T18:25:49.468Z,68409.63
2023-03-21T18:28:20.478Z,68400.91
2023-03-21T18:33:40.706Z,68403.38
2023-03-21T18:36:09.953Z,68394.13
2023-03-21T18:38:38.131Z,68394.13
2023-03-21T18:41:07.813Z,68392.78
2023-03-21T18:46:24.682Z,68388.63
2023-03-21T18:48:52.166Z,68389.00
2023-03-21T18:51:20.455Z,68389.78
2023-03-21T18:53:48.078Z,68389.00
2023-03-21T18:56:56.147Z,68382.19
2023-03-21T18:59:04.859Z,68373.50
2023-03-21T19:01:33.109Z,68362.34
2023-03-21T19:04:23.950Z,68359.53
2023-03-21T19:06:50.704Z,68354.25
2023-03-21T19:09:18.815Z,68362.94
2023-03-21T19:11:47.377Z,68362.34
2023-03-21T19:14:17.024Z,68360.09
2023-03-21T19:17:23.185Z,68372.19
2023-03-21T19:19:33.898Z,68368.97
2023-03-21T19:22:01.801Z,68349.50
2023-03-21T19:24:29.517Z,68363.28
2023-03-21T19:26:57.106Z,68359.16
2023-03-21T19:29:25.548Z,68361.22
2023-03-21T19:31:53.624Z,68364.63
2023-03-21T19:34:21.233Z,68382.97
2023-03-21T19:36:51.875Z,68378.59
2023-03-21T19:39:22.979Z,68389.94
2023-03-21T19:41:51.628Z,68369.53
2023-03-21T19:44:21.961Z,68373.69
2023-03-21T19:46:52.103Z,68373.69
2023-03-21T19:49:22.105Z,68372.38
2023-03-21T19:51:49.811Z,68366.91
2023-03-21T19:54:20.078Z,68369.72
2023-03-21T19:56:48.364Z,68380.50
2023-03-21T19:59:17.352Z,68370.88
2023-03-21T20:01:45.864Z,68370.09
2023-03-21T20:04:14.908Z,68353.84
2023-03-21T20:06:42.878Z,68362.34
2023-03-21T20:09:49.207Z,68358.59
2023-03-21T20:12:00.971Z,68355.19
2023-03-21T20:14:28.653Z,68347.03
2023-03-21T20:16:57.363Z,68344.78
2023-03-21T20:19:25.226Z,68339.50
2023-03-21T20:21:58.796Z,68348.75
2023-03-21T20:24:27.640Z,68358.75
2023-03-21T20:26:55.840Z,68349.50
2023-03-21T20:32:11.438Z,68356.69
2023-03-21T20:34:39.381Z,68377.66
2023-03-21T20:37:07.366Z,68369.91
2023-03-21T20:39:35.561Z,68358.59
2023-03-21T20:42:03.776Z,68341.97
2023-03-21T20:47:19.519Z,68346.09
2023-03-21T20:49:46.805Z,68343.47
2023-03-21T20:52:52.249Z,68333.44
2023-03-21T20:55:03.216Z,68329.47
2023-03-21T20:57:31.374Z,68326.03
2023-03-21T20:59:59.189Z,68328.91
2023-03-21T21:02:31.896Z,68335.69
2023-03-21T21:05:24.710Z,68345.91
2023-03-21T21:08:04.004Z,68322.69
2023-03-21T21:10:33.729Z,68331.75
2023-03-21T21:13:02.001Z,68334.59
2023-03-21T21:15:29.382Z,68325.47
2023-03-21T21:18:08.142Z,68333.63
2023-03-21T21:20:37.429Z,68329.28
2023-03-21T21:23:05.473Z,68323.78
2023-03-21T21:25:34.328Z,68311.88
2023-03-21T21:28:02.827Z,68311.13
2023-03-21T21:30:32.729Z,68310.56
2023-03-21T21:33:01.017Z,68308.84
2023-03-21T21:35:28.714Z,68308.28
2023-03-21T21:37:56.375Z,68300.16
2023-03-21T21:40:24.817Z,68299.81
2023-03-21T21:42:52.724Z,68295.25
2023-03-21T21:45:20.255Z,68296.41
2023-03-21T21:47:48.009Z,68288.09
2023-03-21T21:50:15.650Z,68282.81
2023-03-21T21:52:44.255Z,68278.84
2023-03-21T21:55:13.354Z,68280.16
2023-03-21T21:57:41.176Z,68279.56
2023-03-21T22:00:13.749Z,68277.69
2023-03-21T22:02:42.059Z,68274.50
2023-03-21T22:05:10.628Z,68266.56
2023-03-21T22:07:39.274Z,68262.00
2023-03-21T22:10:07.329Z,68254.09
2023-03-21T22:12:35.119Z,68253.16
2023-03-21T22:15:04.314Z,68242.19
2023-03-21T22:17:32.203Z,68240.31
2023-03-21T22:20:06.175Z,68229.75
2023-03-21T22:22:34.808Z,68222.94
2023-03-21T22:25:03.814Z,68228.78
2023-03-21T22:27:32.060Z,68219.53
2023-03-21T22:30:04.829Z,68221.63
2023-03-21T22:32:33.693Z,68213.88
2023-03-21T22:35:02.562Z,68208.41
2023-03-21T22:37:31.597Z,68209.91
2023-03-21T22:39:59.061Z,68207.09
2023-03-21T22:42:27.731Z,68212.19
2023-03-21T22:44:55.145Z,68215.00
2023-03-21T22:47:22.904Z,68205.19
2023-03-21T22:50:03.841Z,68210.28
2023-03-21T22:52:31.957Z,68204.81
2023-03-21T22:54:59.302Z,68204.81
2023-03-21T22:57:26.712Z,68205.19
2023-03-21T22:59:54.173Z,68199.72
2023-03-21T23:02:21.824Z,68203.69
2023-03-21T23:04:49.292Z,68201.97
2023-03-21T23:07:17.240Z,68200.47
2023-03-21T23:09:44.884Z,68204.63
2023-03-21T23:12:14.288Z,68204.63
2023-03-21T23:14:41.734Z,68207.09
2023-03-21T23:17:10.307Z,68206.91
2023-03-21T23:19:40.487Z,68211.03
2023-03-21T23:22:09.133Z,68206.53
2023-03-21T23:24:36.699Z,68203.50
2023-03-21T23:27:04.400Z,68204.81
2023-03-21T23:29:32.361Z,68201.59
2023-03-21T23:31:59.826Z,68201.25
2023-03-21T23:34:28.188Z,68201.59
2023-03-21T23:36:55.703Z,68200.47
2023-03-21T23:39:23.261Z,68194.06
2023-03-21T23:41:50.672Z,68187.44
2023-03-21T23:44:18.127Z,68198.78
2023-03-21T23:46:45.646Z,68200.47
2023-03-21T23:49:15.172Z,68190.66
2023-03-21T23:51:43.224Z,68191.78
2023-03-21T23:54:13.702Z,68189.53
2023-03-21T23:56:42.121Z,68186.34
2023-03-21T23:59:09.946Z,68189.72
